sensor_id;sensor_type;location;lat;lon;timestamp;temperature;humidity
2439;DHT22;14509;47.992;7.848;2022-08-21T00:00:49;21.00;61.70
2439;DHT22;14509;47.992;7.848;2022-08-21T00:02:53;20.90;61.50
2439;DHT22;14509;47.992;7.848;2022-08-21T00:04:56;21.00;61.70
2439;DHT22;14509;47.992;7.848;2022-08-21T00:06:58;21.00;61.40
2439;DHT22;14509;47.992;7.848;2022-08-21T00:09:00;21.60;61.80
2439;DHT22;14509;47.992;7.848;2022-08-21T00:11:02;21.10;60.90
2439;DHT22;14509;47.992;7.848;2022-08-21T00:13:04;21.10;60.70
2439;DHT22;14509;47.992;7.848;2022-08-21T00:15:09;21.10;60.70
2439;DHT22;14509;47.992;7.848;2022-08-21T00:17:13;21.10;60.50
2439;DHT22;14509;47.992;7.848;2022-08-21T00:19:15;21.10;60.40
2439;DHT22;14509;47.992;7.848;2022-08-21T00:21:18;21.10;60.40
2439;DHT22;14509;47.992;7.848;2022-08-21T00:23:20;21.00;60.30
2439;DHT22;14509;47.992;7.848;2022-08-21T00:25:22;21.00;60.30
2439;DHT22;14509;47.992;7.848;2022-08-21T00:27:24;21.00;60.40
2439;DHT22;14509;47.992;7.848;2022-08-21T00:29:25;21.10;60.50
2439;DHT22;14509;47.992;7.848;2022-08-21T00:31:27;20.90;60.30
2439;DHT22;14509;47.992;7.848;2022-08-21T00:33:30;20.80;60.40
2439;DHT22;14509;47.992;7.848;2022-08-21T00:35:35;20.80;60.50
2439;DHT22;14509;47.992;7.848;2022-08-21T00:37:38;20.80;60.60
2439;DHT22;14509;47.992;7.848;2022-08-21T00:39:40;20.80;60.70
2439;DHT22;14509;47.992;7.848;2022-08-21T00:41:42;20.70;60.70
2439;DHT22;14509;47.992;7.848;2022-08-21T00:43:44;20.70;60.90
2439;DHT22;14509;47.992;7.848;2022-08-21T00:45:47;20.70;60.80
2439;DHT22;14509;47.992;7.848;2022-08-21T00:47:49;20.70;61.00
2439;DHT22;14509;47.992;7.848;2022-08-21T00:49:51;20.60;61.00
2439;DHT22;14509;47.992;7.848;2022-08-21T00:51:55;20.60;61.10
2439;DHT22;14509;47.992;7.848;2022-08-21T00:54:01;20.50;61.00
2439;DHT22;14509;47.992;7.848;2022-08-21T00:56:05;20.50;61.30
2439;DHT22;14509;47.992;7.848;2022-08-21T00:58:09;20.50;61.40
2439;DHT22;14509;47.992;7.848;2022-08-21T01:00:15;20.30;61.30
2439;DHT22;14509;47.992;7.848;2022-08-21T01:02:18;20.40;61.60
2439;DHT22;14509;47.992;7.848;2022-08-21T01:04:22;20.30;61.50
2439;DHT22;14509;47.992;7.848;2022-08-21T01:06:24;20.30;61.50
2439;DHT22;14509;47.992;7.848;2022-08-21T01:08:27;20.60;61.80
2439;DHT22;14509;47.992;7.848;2022-08-21T01:10:32;20.30;61.70
2439;DHT22;14509;47.992;7.848;2022-08-21T01:12:34;20.20;61.50
2439;DHT22;14509;47.992;7.848;2022-08-21T01:14:36;20.20;61.50
2439;DHT22;14509;47.992;7.848;2022-08-21T01:16:39;20.20;61.50
2439;DHT22;14509;47.992;7.848;2022-08-21T01:18:42;20.20;61.60
2439;DHT22;14509;47.992;7.848;2022-08-21T01:20:57;20.20;61.50
2439;DHT22;14509;47.992;7.848;2022-08-21T01:23:00;20.20;61.50
2439;DHT22;14509;47.992;7.848;2022-08-21T01:25:05;20.20;61.50
2439;DHT22;14509;47.992;7.848;2022-08-21T01:27:07;20.10;61.40
2439;DHT22;14509;47.992;7.848;2022-08-21T01:29:14;20.10;61.50
2439;DHT22;14509;47.992;7.848;2022-08-21T01:31:19;20.00;61.50
2439;DHT22;14509;47.992;7.848;2022-08-21T01:33:24;20.20;61.60
2439;DHT22;14509;47.992;7.848;2022-08-21T01:35:26;20.10;61.60
2439;DHT22;14509;47.992;7.848;2022-08-21T01:37:29;20.00;61.50
2439;DHT22;14509;47.992;7.848;2022-08-21T01:39:31;20.00;61.50
2439;DHT22;14509;47.992;7.848;2022-08-21T01:41:33;21.40;63.10
2439;DHT22;14509;47.992;7.848;2022-08-21T01:43:35;20.00;61.70
2439;DHT22;14509;47.992;7.848;2022-08-21T01:45:37;20.00;61.70
2439;DHT22;14509;47.992;7.848;2022-08-21T01:47:39;20.00;61.60
2439;DHT22;14509;47.992;7.848;2022-08-21T01:49:42;20.00;61.40
2439;DHT22;14509;47.992;7.848;2022-08-21T01:51:44;19.90;61.30
2439;DHT22;14509;47.992;7.848;2022-08-21T01:53:47;20.00;61.40
2439;DHT22;14509;47.992;7.848;2022-08-21T01:55:49;20.20;61.50
2439;DHT22;14509;47.992;7.848;2022-08-21T01:57:51;20.20;61.50
2439;DHT22;14509;47.992;7.848;2022-08-21T01:59:53;19.90;61.10
2439;DHT22;14509;47.992;7.848;2022-08-21T02:01:55;19.90;61.10
2439;DHT22;14509;47.992;7.848;2022-08-21T02:03:57;20.00;61.50
2439;DHT22;14509;47.992;7.848;2022-08-21T02:06:00;19.80;61.40
2439;DHT22;14509;47.992;7.848;2022-08-21T02:08:02;20.10;61.90
2439;DHT22;14509;47.992;7.848;2022-08-21T02:10:08;19.80;61.50
2439;DHT22;14509;47.992;7.848;2022-08-21T02:12:11;19.80;61.40
2439;DHT22;14509;47.992;7.848;2022-08-21T02:14:14;19.80;61.40
2439;DHT22;14509;47.992;7.848;2022-08-21T02:16:16;19.80;61.40
2439;DHT22;14509;47.992;7.848;2022-08-21T02:18:18;19.80;61.30
2439;DHT22;14509;47.992;7.848;2022-08-21T02:20:23;19.80;61.20
2439;DHT22;14509;47.992;7.848;2022-08-21T02:22:25;20.10;61.50
2439;DHT22;14509;47.992;7.848;2022-08-21T02:24:27;19.80;61.10
2439;DHT22;14509;47.992;7.848;2022-08-21T02:26:30;19.90;61.40
2439;DHT22;14509;47.992;7.848;2022-08-21T02:28:32;19.90;61.50
2439;DHT22;14509;47.992;7.848;2022-08-21T02:30:38;19.80;61.50
2439;DHT22;14509;47.992;7.848;2022-08-21T02:32:42;19.80;61.90
2439;DHT22;14509;47.992;7.848;2022-08-21T02:34:44;20.20;62.30
2439;DHT22;14509;47.992;7.848;2022-08-21T02:36:46;19.70;61.80
2439;DHT22;14509;47.992;7.848;2022-08-21T02:38:47;19.70;61.70
2439;DHT22;14509;47.992;7.848;2022-08-21T02:40:50;19.70;61.90
2439;DHT22;14509;47.992;7.848;2022-08-21T02:42:54;20.40;62.80
2439;DHT22;14509;47.992;7.848;2022-08-21T02:44:56;19.60;61.90
2439;DHT22;14509;47.992;7.848;2022-08-21T02:46:58;20.60;63.50
2439;DHT22;14509;47.992;7.848;2022-08-21T02:48:59;20.70;63.50
2439;DHT22;14509;47.992;7.848;2022-08-21T02:51:03;19.50;62.10
2439;DHT22;14509;47.992;7.848;2022-08-21T02:53:08;19.50;62.10
2439;DHT22;14509;47.992;7.848;2022-08-21T02:55:10;19.50;62.00
2439;DHT22;14509;47.992;7.848;2022-08-21T02:57:11;19.50;62.00
2439;DHT22;14509;47.992;7.848;2022-08-21T02:59:14;19.50;61.90
2439;DHT22;14509;47.992;7.848;2022-08-21T03:01:17;19.40;61.80
2439;DHT22;14509;47.992;7.848;2022-08-21T03:03:20;19.40;62.40
2439;DHT22;14509;47.992;7.848;2022-08-21T03:05:22;19.40;62.40
2439;DHT22;14509;47.992;7.848;2022-08-21T03:07:24;19.50;62.30
2439;DHT22;14509;47.992;7.848;2022-08-21T03:09:27;19.50;62.10
2439;DHT22;14509;47.992;7.848;2022-08-21T03:11:28;19.50;61.90
2439;DHT22;14509;47.992;7.848;2022-08-21T03:13:31;19.60;61.80
2439;DHT22;14509;47.992;7.848;2022-08-21T03:15:34;19.60;61.60
2439;DHT22;14509;47.992;7.848;2022-08-21T03:17:37;19.50;61.10
2439;DHT22;14509;47.992;7.848;2022-08-21T03:19:39;19.60;60.90
2439;DHT22;14509;47.992;7.848;2022-08-21T03:21:41;19.60;60.80
2439;DHT22;14509;47.992;7.848;2022-08-21T03:23:42;19.60;60.80
2439;DHT22;14509;47.992;7.848;2022-08-21T03:25:45;19.60;60.90
2439;DHT22;14509;47.992;7.848;2022-08-21T03:27:47;19.50;61.00
2439;DHT22;14509;47.992;7.848;2022-08-21T03:29:49;19.50;61.20
2439;DHT22;14509;47.992;7.848;2022-08-21T03:31:52;19.50;61.40
2439;DHT22;14509;47.992;7.848;2022-08-21T03:33:54;19.50;61.50
2439;DHT22;14509;47.992;7.848;2022-08-21T03:36:00;19.40;61.30
2439;DHT22;14509;47.992;7.848;2022-08-21T03:38:02;19.60;61.60
2439;DHT22;14509;47.992;7.848;2022-08-21T03:40:06;19.40;61.50
2439;DHT22;14509;47.992;7.848;2022-08-21T03:42:08;19.40;61.40
2439;DHT22;14509;47.992;7.848;2022-08-21T03:44:10;19.40;61.60
2439;DHT22;14509;47.992;7.848;2022-08-21T03:46:12;19.40;61.60
2439;DHT22;14509;47.992;7.848;2022-08-21T03:48:15;19.40;61.60
2439;DHT22;14509;47.992;7.848;2022-08-21T03:50:17;19.30;61.60
2439;DHT22;14509;47.992;7.848;2022-08-21T03:52:19;19.30;61.50
2439;DHT22;14509;47.992;7.848;2022-08-21T03:54:21;19.40;61.60
2439;DHT22;14509;47.992;7.848;2022-08-21T03:56:23;19.30;61.60
2439;DHT22;14509;47.992;7.848;2022-08-21T03:58:27;19.30;61.60
2439;DHT22;14509;47.992;7.848;2022-08-21T04:00:30;19.30;61.60
2439;DHT22;14509;47.992;7.848;2022-08-21T04:02:31;19.30;61.60
2439;DHT22;14509;47.992;7.848;2022-08-21T04:04:35;19.30;61.50
2439;DHT22;14509;47.992;7.848;2022-08-21T04:06:37;20.70;63.10
2439;DHT22;14509;47.992;7.848;2022-08-21T04:08:39;19.30;61.60
2439;DHT22;14509;47.992;7.848;2022-08-21T04:10:44;19.30;61.60
2439;DHT22;14509;47.992;7.848;2022-08-21T04:12:46;19.30;61.70
2439;DHT22;14509;47.992;7.848;2022-08-21T04:14:48;19.30;61.70
2439;DHT22;14509;47.992;7.848;2022-08-21T04:16:51;19.30;61.50
2439;DHT22;14509;47.992;7.848;2022-08-21T04:18:53;19.30;61.40
2439;DHT22;14509;47.992;7.848;2022-08-21T04:20:58;19.30;61.30
2439;DHT22;14509;47.992;7.848;2022-08-21T04:23:01;19.30;61.30
2439;DHT22;14509;47.992;7.848;2022-08-21T04:25:03;19.20;61.30
2439;DHT22;14509;47.992;7.848;2022-08-21T04:27:05;19.20;61.30
2439;DHT22;14509;47.992;7.848;2022-08-21T04:29:07;19.20;61.20
2439;DHT22;14509;47.992;7.848;2022-08-21T04:31:09;19.20;61.30
2439;DHT22;14509;47.992;7.848;2022-08-21T04:33:11;19.20;61.40
2439;DHT22;14509;47.992;7.848;2022-08-21T04:35:14;19.20;61.50
2439;DHT22;14509;47.992;7.848;2022-08-21T04:37:18;19.30;61.60
2439;DHT22;14509;47.992;7.848;2022-08-21T04:39:20;19.10;61.40
2439;DHT22;14509;47.992;7.848;2022-08-21T04:41:21;19.90;62.30
2439;DHT22;14509;47.992;7.848;2022-08-21T04:43:23;19.20;61.60
2439;DHT22;14509;47.992;7.848;2022-08-21T04:45:27;20.00;62.40
2439;DHT22;14509;47.992;7.848;2022-08-21T04:47:29;19.20;61.60
2439;DHT22;14509;47.992;7.848;2022-08-21T04:49:31;19.20;61.60
2439;DHT22;14509;47.992;7.848;2022-08-21T04:51:35;19.20;61.50
2439;DHT22;14509;47.992;7.848;2022-08-21T04:53:41;19.30;61.50
2439;DHT22;14509;47.992;7.848;2022-08-21T04:55:45;19.30;61.40
2439;DHT22;14509;47.992;7.848;2022-08-21T04:57:49;19.40;61.40
2439;DHT22;14509;47.992;7.848;2022-08-21T04:59:54;19.40;61.30
2439;DHT22;14509;47.992;7.848;2022-08-21T05:01:56;20.20;62.00
2439;DHT22;14509;47.992;7.848;2022-08-21T05:03:59;19.60;61.00
2439;DHT22;14509;47.992;7.848;2022-08-21T05:06:03;19.90;61.10
2439;DHT22;14509;47.992;7.848;2022-08-21T05:08:07;19.80;60.80
2439;DHT22;14509;47.992;7.848;2022-08-21T05:10:13;19.80;60.40
2439;DHT22;14509;47.992;7.848;2022-08-21T05:12:15;19.90;60.20
2439;DHT22;14509;47.992;7.848;2022-08-21T05:14:17;20.00;59.80
2439;DHT22;14509;47.992;7.848;2022-08-21T05:16:19;20.20;59.70
2439;DHT22;14509;47.992;7.848;2022-08-21T05:18:21;20.20;59.40
2439;DHT22;14509;47.992;7.848;2022-08-21T05:20:24;20.30;59.10
2439;DHT22;14509;47.992;7.848;2022-08-21T05:22:26;20.40;58.90
2439;DHT22;14509;47.992;7.848;2022-08-21T05:24:28;20.50;58.60
2439;DHT22;14509;47.992;7.848;2022-08-21T05:26:31;20.60;58.40
2439;DHT22;14509;47.992;7.848;2022-08-21T05:28:33;20.60;58.20
2439;DHT22;14509;47.992;7.848;2022-08-21T05:30:35;20.70;57.90
2439;DHT22;14509;47.992;7.848;2022-08-21T05:32:37;20.80;57.80
2439;DHT22;14509;47.992;7.848;2022-08-21T05:34:39;20.90;57.70
2439;DHT22;14509;47.992;7.848;2022-08-21T05:36:41;20.90;57.50
2439;DHT22;14509;47.992;7.848;2022-08-21T05:38:43;21.00;57.30
2439;DHT22;14509;47.992;7.848;2022-08-21T05:40:45;21.00;57.10
2439;DHT22;14509;47.992;7.848;2022-08-21T05:42:49;21.40;57.20
2439;DHT22;14509;47.992;7.848;2022-08-21T05:44:51;21.70;57.30
2439;DHT22;14509;47.992;7.848;2022-08-21T05:46:52;21.20;56.60
2439;DHT22;14509;47.992;7.848;2022-08-21T05:48:54;21.30;56.50
2439;DHT22;14509;47.992;7.848;2022-08-21T05:50:56;21.30;56.20
2439;DHT22;14509;47.992;7.848;2022-08-21T05:52:58;22.40;57.00
2439;DHT22;14509;47.992;7.848;2022-08-21T05:55:00;21.40;56.10
2439;DHT22;14509;47.992;7.848;2022-08-21T05:57:02;21.40;55.90
2439;DHT22;14509;47.992;7.848;2022-08-21T05:59:05;21.40;55.80
2439;DHT22;14509;47.992;7.848;2022-08-21T06:01:08;21.50;55.80
2439;DHT22;14509;47.992;7.848;2022-08-21T06:03:12;21.50;55.70
2439;DHT22;14509;47.992;7.848;2022-08-21T06:05:13;21.50;55.60
2439;DHT22;14509;47.992;7.848;2022-08-21T06:07:15;21.60;55.50
2439;DHT22;14509;47.992;7.848;2022-08-21T06:09:17;21.70;55.40
2439;DHT22;14509;47.992;7.848;2022-08-21T06:11:19;21.80;55.30
2439;DHT22;14509;47.992;7.848;2022-08-21T06:13:22;21.80;55.10
2439;DHT22;14509;47.992;7.848;2022-08-21T06:15:25;21.90;55.10
2439;DHT22;14509;47.992;7.848;2022-08-21T06:17:27;22.00;54.80
2439;DHT22;14509;47.992;7.848;2022-08-21T06:19:29;22.20;54.70
2439;DHT22;14509;47.992;7.848;2022-08-21T06:21:31;22.40;55.00
2439;DHT22;14509;47.992;7.848;2022-08-21T06:23:33;22.40;54.60
2439;DHT22;14509;47.992;7.848;2022-08-21T06:25:36;22.60;54.40
2439;DHT22;14509;47.992;7.848;2022-08-21T06:27:38;22.70;54.00
2439;DHT22;14509;47.992;7.848;2022-08-21T06:29:39;22.80;53.40
2439;DHT22;14509;47.992;7.848;2022-08-21T06:31:43;22.90;52.80
2439;DHT22;14509;47.992;7.848;2022-08-21T06:33:45;23.00;52.60
2439;DHT22;14509;47.992;7.848;2022-08-21T06:35:48;23.10;52.50
2439;DHT22;14509;47.992;7.848;2022-08-21T06:37:49;23.10;52.30
2439;DHT22;14509;47.992;7.848;2022-08-21T06:39:51;23.40;52.20
2439;DHT22;14509;47.992;7.848;2022-08-21T06:41:53;23.30;51.80
2439;DHT22;14509;47.992;7.848;2022-08-21T06:44:02;23.20;51.60
2439;DHT22;14509;47.992;7.848;2022-08-21T06:46:04;23.20;51.60
2439;DHT22;14509;47.992;7.848;2022-08-21T06:48:08;24.20;52.40
2439;DHT22;14509;47.992;7.848;2022-08-21T06:50:10;23.20;51.90
2439;DHT22;14509;47.992;7.848;2022-08-21T06:52:13;23.20;51.70
2439;DHT22;14509;47.992;7.848;2022-08-21T06:54:15;23.20;51.60
2439;DHT22;14509;47.992;7.848;2022-08-21T06:56:17;23.20;51.60
2439;DHT22;14509;47.992;7.848;2022-08-21T06:58:19;23.20;51.50
2439;DHT22;14509;47.992;7.848;2022-08-21T07:00:21;23.20;51.50
2439;DHT22;14509;47.992;7.848;2022-08-21T07:02:23;23.30;51.50
2439;DHT22;14509;47.992;7.848;2022-08-21T07:04:26;23.40;51.40
2439;DHT22;14509;47.992;7.848;2022-08-21T07:06:28;23.50;51.30
2439;DHT22;14509;47.992;7.848;2022-08-21T07:08:31;23.50;51.00
2439;DHT22;14509;47.992;7.848;2022-08-21T07:10:32;23.60;50.80
2439;DHT22;14509;47.992;7.848;2022-08-21T07:12:34;23.70;50.60
2439;DHT22;14509;47.992;7.848;2022-08-21T07:14:36;23.70;50.50
2439;DHT22;14509;47.992;7.848;2022-08-21T07:16:38;23.80;50.30
2439;DHT22;14509;47.992;7.848;2022-08-21T07:18:40;23.80;50.20
2439;DHT22;14509;47.992;7.848;2022-08-21T07:20:43;23.80;50.00
2439;DHT22;14509;47.992;7.848;2022-08-21T07:22:46;24.60;50.40
2439;DHT22;14509;47.992;7.848;2022-08-21T07:24:47;24.00;50.00
2439;DHT22;14509;47.992;7.848;2022-08-21T07:26:49;24.00;50.10
2439;DHT22;14509;47.992;7.848;2022-08-21T07:28:52;24.20;50.30
2439;DHT22;14509;47.992;7.848;2022-08-21T07:30:56;24.40;50.30
2439;DHT22;14509;47.992;7.848;2022-08-21T07:32:58;24.50;50.00
2439;DHT22;14509;47.992;7.848;2022-08-21T07:34:59;24.70;50.00
2439;DHT22;14509;47.992;7.848;2022-08-21T07:37:03;25.00;49.50
2439;DHT22;14509;47.992;7.848;2022-08-21T07:39:05;25.20;48.80
2439;DHT22;14509;47.992;7.848;2022-08-21T07:41:13;25.40;47.90
2439;DHT22;14509;47.992;7.848;2022-08-21T07:43:16;25.50;47.80
2439;DHT22;14509;47.992;7.848;2022-08-21T07:45:20;25.60;47.50
2439;DHT22;14509;47.992;7.848;2022-08-21T07:47:22;25.60;47.20
2439;DHT22;14509;47.992;7.848;2022-08-21T07:49:24;25.60;47.10
2439;DHT22;14509;47.992;7.848;2022-08-21T07:51:27;25.60;46.70
2439;DHT22;14509;47.992;7.848;2022-08-21T07:53:30;25.40;46.90
2439;DHT22;14509;47.992;7.848;2022-08-21T07:55:32;25.40;46.90
2439;DHT22;14509;47.992;7.848;2022-08-21T07:57:34;25.30;47.60
2439;DHT22;14509;47.992;7.848;2022-08-21T07:59:36;25.30;46.60
2439;DHT22;14509;47.992;7.848;2022-08-21T08:01:38;25.20;46.60
2439;DHT22;14509;47.992;7.848;2022-08-21T08:03:40;26.20;47.20
2439;DHT22;14509;47.992;7.848;2022-08-21T08:05:42;25.20;46.80
2439;DHT22;14509;47.992;7.848;2022-08-21T08:07:44;25.20;46.50
2439;DHT22;14509;47.992;7.848;2022-08-21T08:09:47;25.20;45.90
2439;DHT22;14509;47.992;7.848;2022-08-21T08:11:49;25.20;45.90
2439;DHT22;14509;47.992;7.848;2022-08-21T08:13:51;25.20;45.70
2439;DHT22;14509;47.992;7.848;2022-08-21T08:15:53;25.20;45.40
2439;DHT22;14509;47.992;7.848;2022-08-21T08:17:55;25.20;45.30
2439;DHT22;14509;47.992;7.848;2022-08-21T08:19:58;25.40;45.40
2439;DHT22;14509;47.992;7.848;2022-08-21T08:22:01;25.30;44.90
2439;DHT22;14509;47.992;7.848;2022-08-21T08:24:03;25.40;44.40
2439;DHT22;14509;47.992;7.848;2022-08-21T08:26:07;25.40;44.20
2439;DHT22;14509;47.992;7.848;2022-08-21T08:28:08;25.40;44.00
2439;DHT22;14509;47.992;7.848;2022-08-21T08:30:13;25.50;43.60
2439;DHT22;14509;47.992;7.848;2022-08-21T08:32:15;25.50;43.80
2439;DHT22;14509;47.992;7.848;2022-08-21T08:34:17;25.60;43.90
2439;DHT22;14509;47.992;7.848;2022-08-21T08:36:20;25.60;43.80
2439;DHT22;14509;47.992;7.848;2022-08-21T08:38:32;25.70;43.60
2439;DHT22;14509;47.992;7.848;2022-08-21T08:40:37;25.80;43.40
2439;DHT22;14509;47.992;7.848;2022-08-21T08:42:41;25.90;43.30
2439;DHT22;14509;47.992;7.848;2022-08-21T08:44:45;26.00;43.10
2439;DHT22;14509;47.992;7.848;2022-08-21T08:46:49;26.00;42.80
2439;DHT22;14509;47.992;7.848;2022-08-21T08:48:57;26.10;42.40
2439;DHT22;14509;47.992;7.848;2022-08-21T08:51:00;26.90;42.90
2439;DHT22;14509;47.992;7.848;2022-08-21T08:53:06;26.20;42.30
2439;DHT22;14509;47.992;7.848;2022-08-21T08:55:12;26.20;42.20
2439;DHT22;14509;47.992;7.848;2022-08-21T08:57:19;26.30;42.20
2439;DHT22;14509;47.992;7.848;2022-08-21T08:59:26;26.30;42.10
2439;DHT22;14509;47.992;7.848;2022-08-21T09:01:29;26.40;41.10
2439;DHT22;14509;47.992;7.848;2022-08-21T09:03:30;26.40;40.80
2439;DHT22;14509;47.992;7.848;2022-08-21T09:05:40;26.60;40.50
2439;DHT22;14509;47.992;7.848;2022-08-21T09:07:49;26.50;40.20
2439;DHT22;14509;47.992;7.848;2022-08-21T09:10:05;26.60;39.70
2439;DHT22;14509;47.992;7.848;2022-08-21T09:12:13;26.60;40.00
2439;DHT22;14509;47.992;7.848;2022-08-21T09:14:26;26.70;40.00
2439;DHT22;14509;47.992;7.848;2022-08-21T09:16:35;26.80;40.50
2439;DHT22;14509;47.992;7.848;2022-08-21T09:18:46;26.90;40.30
2439;DHT22;14509;47.992;7.848;2022-08-21T09:21:01;27.00;40.00
2439;DHT22;14509;47.992;7.848;2022-08-21T09:23:17;27.00;40.30
2439;DHT22;14509;47.992;7.848;2022-08-21T09:25:26;27.10;40.40
2439;DHT22;14509;47.992;7.848;2022-08-21T09:27:29;27.20;40.40
2439;DHT22;14509;47.992;7.848;2022-08-21T09:29:36;27.20;39.90
2439;DHT22;14509;47.992;7.848;2022-08-21T09:31:39;27.30;39.30
2439;DHT22;14509;47.992;7.848;2022-08-21T09:33:41;27.40;38.90
2439;DHT22;14509;47.992;7.848;2022-08-21T09:35:51;27.40;38.50
2439;DHT22;14509;47.992;7.848;2022-08-21T09:37:56;27.50;37.90
2439;DHT22;14509;47.992;7.848;2022-08-21T09:39:58;27.60;38.00
2439;DHT22;14509;47.992;7.848;2022-08-21T09:42:04;27.50;37.30
2439;DHT22;14509;47.992;7.848;2022-08-21T09:44:08;27.70;37.60
2439;DHT22;14509;47.992;7.848;2022-08-21T09:46:21;27.80;37.60
2439;DHT22;14509;47.992;7.848;2022-08-21T09:48:25;27.80;37.50
2439;DHT22;14509;47.992;7.848;2022-08-21T09:50:27;28.00;37.50
2439;DHT22;14509;47.992;7.848;2022-08-21T09:52:29;28.00;37.00
2439;DHT22;14509;47.992;7.848;2022-08-21T09:54:34;28.00;36.80
2439;DHT22;14509;47.992;7.848;2022-08-21T09:56:39;28.10;37.00
2439;DHT22;14509;47.992;7.848;2022-08-21T09:58:59;28.10;36.90
2439;DHT22;14509;47.992;7.848;2022-08-21T10:01:04;28.20;37.00
2439;DHT22;14509;47.992;7.848;2022-08-21T10:03:18;28.20;37.00
2439;DHT22;14509;47.992;7.848;2022-08-21T10:05:24;28.30;36.80
2439;DHT22;14509;47.992;7.848;2022-08-21T10:07:28;28.40;36.70
2439;DHT22;14509;47.992;7.848;2022-08-21T10:09:31;28.50;36.70
2439;DHT22;14509;47.992;7.848;2022-08-21T10:11:33;28.60;36.30
2439;DHT22;14509;47.992;7.848;2022-08-21T10:13:46;28.60;36.30
2439;DHT22;14509;47.992;7.848;2022-08-21T10:15:59;28.70;36.30
2439;DHT22;14509;47.992;7.848;2022-08-21T10:18:11;28.70;36.30
2439;DHT22;14509;47.992;7.848;2022-08-21T10:20:20;28.80;36.10
2439;DHT22;14509;47.992;7.848;2022-08-21T10:22:32;28.80;36.00
2439;DHT22;14509;47.992;7.848;2022-08-21T10:24:42;28.90;36.10
2439;DHT22;14509;47.992;7.848;2022-08-21T10:26:52;28.90;36.00
2439;DHT22;14509;47.992;7.848;2022-08-21T10:29:03;29.00;34.90
2439;DHT22;14509;47.992;7.848;2022-08-21T10:31:13;29.10;34.30
2439;DHT22;14509;47.992;7.848;2022-08-21T10:33:29;29.10;33.80
2439;DHT22;14509;47.992;7.848;2022-08-21T10:35:39;29.20;34.50
2439;DHT22;14509;47.992;7.848;2022-08-21T10:37:54;29.20;34.50
2439;DHT22;14509;47.992;7.848;2022-08-21T10:40:09;29.30;34.90
2439;DHT22;14509;47.992;7.848;2022-08-21T10:42:23;29.30;34.70
2439;DHT22;14509;47.992;7.848;2022-08-21T10:44:32;29.30;34.40
2439;DHT22;14509;47.992;7.848;2022-08-21T10:46:43;29.40;34.50
2439;DHT22;14509;47.992;7.848;2022-08-21T10:48:53;29.40;34.50
2439;DHT22;14509;47.992;7.848;2022-08-21T10:51:05;29.50;33.80
2439;DHT22;14509;47.992;7.848;2022-08-21T10:53:28;30.20;34.30
2439;DHT22;14509;47.992;7.848;2022-08-21T10:55:33;29.60;33.60
2439;DHT22;14509;47.992;7.848;2022-08-21T10:57:41;29.70;33.80
2439;DHT22;14509;47.992;7.848;2022-08-21T10:59:49;30.20;34.20
2439;DHT22;14509;47.992;7.848;2022-08-21T11:01:57;29.80;33.90
2439;DHT22;14509;47.992;7.848;2022-08-21T11:04:10;29.90;34.00
2439;DHT22;14509;47.992;7.848;2022-08-21T11:06:17;30.00;33.90
2439;DHT22;14509;47.992;7.848;2022-08-21T11:08:23;30.10;34.40
2439;DHT22;14509;47.992;7.848;2022-08-21T11:10:31;30.20;33.60
2439;DHT22;14509;47.992;7.848;2022-08-21T11:12:38;30.30;33.40
2439;DHT22;14509;47.992;7.848;2022-08-21T11:14:47;30.30;33.30
2439;DHT22;14509;47.992;7.848;2022-08-21T11:16:56;30.30;32.70
2439;DHT22;14509;47.992;7.848;2022-08-21T11:19:04;30.50;32.80
2439;DHT22;14509;47.992;7.848;2022-08-21T11:21:19;30.50;32.70
2439;DHT22;14509;47.992;7.848;2022-08-21T11:23:26;30.50;32.40
2439;DHT22;14509;47.992;7.848;2022-08-21T11:25:33;30.50;32.10
2439;DHT22;14509;47.992;7.848;2022-08-21T11:27:41;31.20;32.60
2439;DHT22;14509;47.992;7.848;2022-08-21T11:29:48;30.50;31.90
2439;DHT22;14509;47.992;7.848;2022-08-21T11:32:03;30.60;31.90
2439;DHT22;14509;47.992;7.848;2022-08-21T11:34:20;30.70;31.90
2439;DHT22;14509;47.992;7.848;2022-08-21T11:36:31;30.70;31.90
2439;DHT22;14509;47.992;7.848;2022-08-21T11:38:35;30.70;31.80
2439;DHT22;14509;47.992;7.848;2022-08-21T11:40:59;31.50;32.20
2439;DHT22;14509;47.992;7.848;2022-08-21T11:43:08;30.70;31.60
2439;DHT22;14509;47.992;7.848;2022-08-21T11:45:19;30.80;31.50
2439;DHT22;14509;47.992;7.848;2022-08-21T11:47:33;30.90;31.50
2439;DHT22;14509;47.992;7.848;2022-08-21T11:49:49;30.90;31.10
2439;DHT22;14509;47.992;7.848;2022-08-21T11:52:04;31.00;30.80
2439;DHT22;14509;47.992;7.848;2022-08-21T11:54:25;31.10;30.50
2439;DHT22;14509;47.992;7.848;2022-08-21T11:56:32;31.10;30.50
2439;DHT22;14509;47.992;7.848;2022-08-21T11:58:39;31.10;30.50
2439;DHT22;14509;47.992;7.848;2022-08-21T12:00:45;31.30;30.50
2439;DHT22;14509;47.992;7.848;2022-08-21T12:02:51;31.30;30.00
2439;DHT22;14509;47.992;7.848;2022-08-21T12:04:56;31.30;30.00
2439;DHT22;14509;47.992;7.848;2022-08-21T12:07:12;31.40;30.30
2439;DHT22;14509;47.992;7.848;2022-08-21T12:09:30;31.20;30.00
2439;DHT22;14509;47.992;7.848;2022-08-21T12:11:46;31.20;30.00
2439;DHT22;14509;47.992;7.848;2022-08-21T12:13:55;31.10;30.10
2439;DHT22;14509;47.992;7.848;2022-08-21T12:16:06;31.10;30.00
2439;DHT22;14509;47.992;7.848;2022-08-21T12:18:22;31.10;30.10
2439;DHT22;14509;47.992;7.848;2022-08-21T12:20:36;31.10;30.50
2439;DHT22;14509;47.992;7.848;2022-08-21T12:22:41;31.10;30.70
2439;DHT22;14509;47.992;7.848;2022-08-21T12:24:47;31.10;30.40
2439;DHT22;14509;47.992;7.848;2022-08-21T12:26:52;31.10;30.60
2439;DHT22;14509;47.992;7.848;2022-08-21T12:29:13;31.30;30.90
2439;DHT22;14509;47.992;7.848;2022-08-21T12:31:20;31.40;30.50
2439;DHT22;14509;47.992;7.848;2022-08-21T12:33:26;31.70;30.00
2439;DHT22;14509;47.992;7.848;2022-08-21T12:35:33;31.80;30.00
2439;DHT22;14509;47.992;7.848;2022-08-21T12:37:41;32.00;30.00
2439;DHT22;14509;47.992;7.848;2022-08-21T12:39:45;32.20;30.00
2439;DHT22;14509;47.992;7.848;2022-08-21T12:41:51;32.40;29.80
2439;DHT22;14509;47.992;7.848;2022-08-21T12:43:58;32.70;29.30
2439;DHT22;14509;47.992;7.848;2022-08-21T12:46:01;33.00;28.60
2439;DHT22;14509;47.992;7.848;2022-08-21T12:48:10;33.00;28.80
2439;DHT22;14509;47.992;7.848;2022-08-21T12:50:19;33.10;28.30
2439;DHT22;14509;47.992;7.848;2022-08-21T12:52:27;33.10;28.20
2439;DHT22;14509;47.992;7.848;2022-08-21T12:54:37;33.20;28.20
2439;DHT22;14509;47.992;7.848;2022-08-21T12:56:39;33.30;28.50
2439;DHT22;14509;47.992;7.848;2022-08-21T12:58:45;33.20;28.00
2439;DHT22;14509;47.992;7.848;2022-08-21T13:00:49;33.20;28.10
2439;DHT22;14509;47.992;7.848;2022-08-21T13:02:53;33.10;28.20
2439;DHT22;14509;47.992;7.848;2022-08-21T13:04:56;33.00;28.30
2439;DHT22;14509;47.992;7.848;2022-08-21T13:06:59;32.90;28.30
2439;DHT22;14509;47.992;7.848;2022-08-21T13:09:05;32.90;28.60
2439;DHT22;14509;47.992;7.848;2022-08-21T13:11:10;32.90;28.80
2439;DHT22;14509;47.992;7.848;2022-08-21T13:13:19;32.90;29.50
2439;DHT22;14509;47.992;7.848;2022-08-21T13:15:25;32.90;28.70
2439;DHT22;14509;47.992;7.848;2022-08-21T13:17:31;33.00;28.60
2439;DHT22;14509;47.992;7.848;2022-08-21T13:19:34;33.10;28.80